createdAt,value
2019-03-08T00:02:15.949Z,11.65
2019-03-08T00:04:47.693Z,12.63
2019-03-08T00:07:18.882Z,12.30
2019-03-08T00:09:52.047Z,12.65
2019-03-08T00:12:25.357Z,12.40
2019-03-08T00:14:56.486Z,12.85
2019-03-08T00:17:33.554Z,12.05
2019-03-08T00:20:12.913Z,11.78
2019-03-08T00:22:44.564Z,12.80
2019-03-08T00:25:18.102Z,11.83
2019-03-08T00:27:49.345Z,12.58
2019-03-08T00:30:20.537Z,13.72
2019-03-08T00:32:52.700Z,12.23
2019-03-08T00:35:23.869Z,12.43
2019-03-08T00:37:58.639Z,13.40
2019-03-08T00:40:32.830Z,13.85
2019-03-08T00:43:05.744Z,12.18
2019-03-08T00:45:38.599Z,12.58
2019-03-08T00:48:09.992Z,11.88
2019-03-08T00:50:41.216Z,12.75
2019-03-08T00:53:13.168Z,12.28
2019-03-08T00:55:44.663Z,12.45
2019-03-08T00:58:15.862Z,12.73
2019-03-08T01:00:47.992Z,13.65
2019-03-08T01:03:20.915Z,13.35
2019-03-08T01:05:53.613Z,12.78
2019-03-08T01:08:24.815Z,12.68
2019-03-08T01:10:56.007Z,12.93
2019-03-08T01:13:29.267Z,13.18
2019-03-08T01:16:02.720Z,12.47
2019-03-08T01:18:37.254Z,11.75
2019-03-08T01:21:10.159Z,13.13
2019-03-08T01:23:44.962Z,12.85
2019-03-08T01:26:17.257Z,13.28
2019-03-08T01:28:48.840Z,12.93
2019-03-08T01:31:21.688Z,13.00
2019-03-08T01:33:53.872Z,13.65
2019-03-08T01:36:26.831Z,12.47
2019-03-08T01:38:58.846Z,13.70
2019-03-08T01:41:32.559Z,13.30
2019-03-08T01:44:06.703Z,12.20
2019-03-08T01:46:37.948Z,13.48
2019-03-08T01:49:09.631Z,12.80
2019-03-08T01:51:40.812Z,13.75
2019-03-08T01:54:12.260Z,13.10
2019-03-08T01:56:48.445Z,13.18
2019-03-08T01:59:22.533Z,13.83
2019-03-08T02:01:54.736Z,13.85
2019-03-08T02:04:27.889Z,14.93
2019-03-08T02:07:02.015Z,14.28
2019-03-08T02:09:33.431Z,14.10
2019-03-08T02:12:05.085Z,14.00
2019-03-08T02:14:36.593Z,13.75
2019-03-08T02:17:08.144Z,13.75
2019-03-08T02:19:40.970Z,13.55
2019-03-08T02:22:14.838Z,14.47
2019-03-08T02:24:46.505Z,15.58
2019-03-08T02:27:17.688Z,14.05
2019-03-08T02:29:49.897Z,14.63
2019-03-08T02:32:22.041Z,15.45
2019-03-08T02:34:55.880Z,14.05
2019-03-08T02:37:30.724Z,14.00
2019-03-08T02:40:04.637Z,14.25
2019-03-08T02:45:16.418Z,14.58
2019-03-08T02:47:48.477Z,14.47
2019-03-08T02:50:21.858Z,15.05
2019-03-08T02:52:56.184Z,14.78
2019-03-08T02:55:27.569Z,15.53
2019-03-08T02:58:01.342Z,14.90
2019-03-08T03:00:38.199Z,14.80
2019-03-08T03:03:10.820Z,14.18
2019-03-08T03:05:44.052Z,14.70
2019-03-08T03:08:16.732Z,15.13
2019-03-08T03:10:50.353Z,15.03
2019-03-08T03:13:22.675Z,15.83
2019-03-08T03:15:54.970Z,16.02
2019-03-08T03:18:26.307Z,16.42
2019-03-08T03:20:57.559Z,16.00
2019-03-08T03:23:28.766Z,16.23
2019-03-08T03:26:01.567Z,14.47
2019-03-08T03:28:34.539Z,15.60
2019-03-08T03:31:11.108Z,16.48
2019-03-08T03:33:42.201Z,15.35
2019-03-08T03:36:14.683Z,15.48
2019-03-08T03:38:48.392Z,16.57
2019-03-08T03:41:19.609Z,16.35
2019-03-08T03:43:54.876Z,17.62
2019-03-08T03:46:31.242Z,16.30
2019-03-08T03:49:09.243Z,17.25
2019-03-08T03:51:43.061Z,16.32
2019-03-08T03:54:15.323Z,17.40
2019-03-08T03:56:47.376Z,17.07
2019-03-08T03:59:21.070Z,16.65
2019-03-08T04:01:53.798Z,17.23
2019-03-08T04:04:27.751Z,16.40
2019-03-08T04:07:01.263Z,17.05
2019-03-08T04:09:32.461Z,17.40
2019-03-08T04:12:05.531Z,16.90
2019-03-08T04:14:37.982Z,17.50
2019-03-08T04:17:09.268Z,17.50
2019-03-08T04:19:40.507Z,18.40
2019-03-08T04:22:14.313Z,18.87
2019-03-08T04:24:47.369Z,19.32
2019-03-08T04:27:20.942Z,18.77
2019-03-08T04:29:52.154Z,18.52
2019-03-08T04:32:23.387Z,20.72
2019-03-08T04:34:54.594Z,18.75
2019-03-08T04:37:25.841Z,18.55
2019-03-08T04:39:57.012Z,19.35
2019-03-08T04:42:29.906Z,19.92
2019-03-08T04:45:04.713Z,19.25
2019-03-08T04:47:37.618Z,18.50
2019-03-08T04:50:11.872Z,18.17
2019-03-08T04:52:45.011Z,18.87
2019-03-08T04:55:20.888Z,18.50
2019-03-08T04:57:52.941Z,19.00
2019-03-08T05:00:27.252Z,19.05
2019-03-08T05:02:58.575Z,18.17
2019-03-08T05:05:32.561Z,20.25
2019-03-08T05:08:03.859Z,18.15
2019-03-08T05:10:36.986Z,17.80
2019-03-08T05:13:10.705Z,18.75
2019-03-08T05:15:43.464Z,18.48
2019-03-08T05:18:14.741Z,20.08
2019-03-08T05:20:46.113Z,17.80
2019-03-08T05:23:17.755Z,18.98
2019-03-08T05:25:49.123Z,17.75
2019-03-08T05:28:20.405Z,18.02
2019-03-08T05:30:55.372Z,20.30
2019-03-08T05:33:26.621Z,17.57
2019-03-08T05:35:57.835Z,17.95
2019-03-08T05:38:33.419Z,16.80
2019-03-08T05:41:04.956Z,16.17
2019-03-08T05:43:36.450Z,16.17
2019-03-08T05:46:08.044Z,17.70
2019-03-08T05:48:39.857Z,18.00
2019-03-08T05:51:12.277Z,18.45
2019-03-08T05:53:43.721Z,18.20
2019-03-08T05:56:15.820Z,18.87
2019-03-08T05:58:47.074Z,18.52
2019-03-08T06:01:18.447Z,18.90
2019-03-08T06:03:51.257Z,18.32
2019-03-08T06:06:23.659Z,17.90
2019-03-08T06:08:55.487Z,18.57
2019-03-08T06:11:26.674Z,17.70
2019-03-08T06:13:57.874Z,20.68
2019-03-08T06:16:30.084Z,20.17
2019-03-08T06:19:01.386Z,18.77
2019-03-08T06:21:34.795Z,19.02
2019-03-08T06:24:05.990Z,18.77
2019-03-08T06:26:38.796Z,18.48
2019-03-08T06:29:10.423Z,18.98
2019-03-08T06:31:42.004Z,17.45
2019-03-08T06:34:15.652Z,17.98
2019-03-08T06:36:53.110Z,18.15
2019-03-08T06:39:25.902Z,18.02
2019-03-08T06:41:58.445Z,18.37
2019-03-08T06:44:33.326Z,18.00
2019-03-08T06:47:07.516Z,17.48
2019-03-08T06:49:40.891Z,17.52
2019-03-08T06:52:15.281Z,18.00
2019-03-08T06:54:48.400Z,17.52
2019-03-08T06:57:20.491Z,17.35
2019-03-08T06:59:56.913Z,17.25
2019-03-08T07:02:30.287Z,17.00
2019-03-08T07:05:04.717Z,15.63
2019-03-08T07:07:39.083Z,17.17
2019-03-08T07:10:10.475Z,16.77
2019-03-08T07:12:42.160Z,16.65
2019-03-08T07:15:16.133Z,16.73
2019-03-08T07:17:47.943Z,15.75
2019-03-08T07:20:24.786Z,15.75
2019-03-08T07:23:12.893Z,15.32
2019-03-08T07:26:03.937Z,15.63
2019-03-08T07:28:41.510Z,15.43
2019-03-08T07:31:29.547Z,15.58
2019-03-08T07:34:14.359Z,15.80
2019-03-08T07:36:50.915Z,16.97
2019-03-08T07:39:41.709Z,15.68
2019-03-08T07:42:27.698Z,16.20
2019-03-08T07:45:11.245Z,15.38
2019-03-08T07:48:02.843Z,15.68
2019-03-08T07:50:38.694Z,16.80
2019-03-08T07:53:23.352Z,16.95
2019-03-08T07:56:03.717Z,16.82
2019-03-08T07:58:40.213Z,16.23
2019-03-08T08:01:13.370Z,15.95
2019-03-08T08:03:53.524Z,17.00
2019-03-08T08:06:32.368Z,16.42
2019-03-08T08:09:09.982Z,15.63
2019-03-08T08:11:58.064Z,16.50
2019-03-08T08:14:39.389Z,16.50
2019-03-08T08:17:16.078Z,17.00
2019-03-08T08:19:49.048Z,15.90
2019-03-08T08:22:23.939Z,15.85
2019-03-08T08:25:13.822Z,16.50
2019-03-08T08:27:49.406Z,15.98
2019-03-08T08:30:22.355Z,16.57
2019-03-08T08:33:13.418Z,15.68
2019-03-08T08:38:21.397Z,15.13
2019-03-08T08:41:06.539Z,15.83
2019-03-08T08:43:40.435Z,16.37
2019-03-08T08:46:13.308Z,16.73
2019-03-08T08:48:46.594Z,16.95
2019-03-08T08:51:26.664Z,15.83
2019-03-08T08:54:03.044Z,17.73
2019-03-08T08:56:52.178Z,15.83
2019-03-08T08:59:34.579Z,15.00
2019-03-08T09:02:17.353Z,15.75
2019-03-08T09:05:01.153Z,15.53
2019-03-08T09:07:53.649Z,16.35
2019-03-08T09:10:43.759Z,16.00
2019-03-08T09:13:24.220Z,15.27
2019-03-08T09:15:58.681Z,15.72
2019-03-08T09:18:38.025Z,15.25
2019-03-08T09:21:29.394Z,14.73
2019-03-08T09:24:11.381Z,14.65
2019-03-08T09:26:50.631Z,15.63
2019-03-08T09:29:41.194Z,15.03
2019-03-08T09:32:12.045Z,14.38
2019-03-08T09:34:45.490Z,14.10
2019-03-08T09:37:35.440Z,14.50
2019-03-08T09:40:12.923Z,14.07
2019-03-08T09:42:45.913Z,14.10
2019-03-08T09:45:18.927Z,15.00
2019-03-08T09:49:42.991Z,14.35
2019-03-08T09:52:16.785Z,14.33
2019-03-08T09:54:49.648Z,14.13
2019-03-08T09:57:38.732Z,12.43
2019-03-08T10:00:14.322Z,12.90
2019-03-08T10:02:57.074Z,13.83
2019-03-08T10:05:29.891Z,15.15
2019-03-08T10:08:18.843Z,14.43
2019-03-08T10:10:54.082Z,14.23
2019-03-08T10:13:32.082Z,15.83
2019-03-08T10:16:04.905Z,14.93
2019-03-08T10:18:43.811Z,15.05
2019-03-08T10:21:25.442Z,13.30
2019-03-08T10:23:58.317Z,13.85
2019-03-08T10:26:47.554Z,14.03
2019-03-08T10:29:26.460Z,13.88
2019-03-08T10:32:03.937Z,14.07
2019-03-08T10:34:36.777Z,14.68
2019-03-08T10:37:19.895Z,14.33
2019-03-08T10:39:55.471Z,16.20
2019-03-08T10:42:29.380Z,14.75
2019-03-08T10:45:20.716Z,14.47
2019-03-08T10:47:59.624Z,14.58
2019-03-08T10:50:32.946Z,14.13
2019-03-08T10:53:09.438Z,14.30
2019-03-08T10:55:54.206Z,13.80
2019-03-08T10:58:36.122Z,13.68
2019-03-08T11:03:34.971Z,14.13
2019-03-08T11:06:09.161Z,14.07
2019-03-08T11:08:42.091Z,13.93
2019-03-08T11:11:21.910Z,12.65
2019-03-08T11:14:11.055Z,13.30
2019-03-08T11:16:46.898Z,13.48
2019-03-08T11:19:27.570Z,13.85
2019-03-08T11:22:00.026Z,13.18
2019-03-08T11:24:33.829Z,12.45
2019-03-08T11:27:09.393Z,13.65
2019-03-08T11:29:43.229Z,13.00
2019-03-08T11:32:24.893Z,13.43
2019-03-08T11:35:03.513Z,12.93
2019-03-08T11:37:36.366Z,12.90
2019-03-08T11:40:12.507Z,13.68
2019-03-08T11:42:52.031Z,13.78
2019-03-08T11:45:26.321Z,17.30
2019-03-08T11:48:06.584Z,16.77
2019-03-08T11:50:57.389Z,16.87
2019-03-08T11:53:30.249Z,17.60
2019-03-08T11:56:21.401Z,18.77
2019-03-08T11:58:57.180Z,17.73
2019-03-08T12:01:30.023Z,18.57
2019-03-08T12:04:02.852Z,20.30
2019-03-08T12:06:39.047Z,18.95
2019-03-08T12:09:32.300Z,21.85
2019-03-08T12:12:08.635Z,20.15
2019-03-08T12:14:47.672Z,20.40
2019-03-08T12:17:23.959Z,20.32
2019-03-08T12:20:02.654Z,18.45
2019-03-08T12:22:37.075Z,18.98
2019-03-08T12:25:19.457Z,17.50
2019-03-08T12:28:10.321Z,19.95
2019-03-08T12:31:01.212Z,19.42
2019-03-08T12:36:08.967Z,20.70
2019-03-08T12:38:41.981Z,20.80
2019-03-08T12:41:14.794Z,20.55
2019-03-08T12:43:48.079Z,21.17
2019-03-08T12:46:34.445Z,21.97
2019-03-08T12:49:07.354Z,21.27
2019-03-08T12:51:46.013Z,19.35
2019-03-08T12:54:21.809Z,18.75
2019-03-08T12:57:03.843Z,18.98
2019-03-08T12:59:36.706Z,20.10
2019-03-08T13:02:18.553Z,19.85
2019-03-08T13:05:03.619Z,18.98
2019-03-08T13:07:54.708Z,20.50
2019-03-08T13:12:57.535Z,20.17
2019-03-08T13:15:28.813Z,20.70
2019-03-08T13:18:00.025Z,22.48
2019-03-08T13:20:31.320Z,24.07
2019-03-08T13:23:02.708Z,23.60
2019-03-08T13:25:34.029Z,23.62
2019-03-08T13:28:05.380Z,23.00
2019-03-08T13:30:36.616Z,23.73
2019-03-08T13:33:07.788Z,24.18
2019-03-08T13:35:39.449Z,23.95
2019-03-08T13:38:10.645Z,24.60
2019-03-08T13:40:41.907Z,24.87
2019-03-08T13:43:13.078Z,24.75
2019-03-08T13:45:44.405Z,25.60
2019-03-08T13:48:15.958Z,23.67
2019-03-08T13:52:30.117Z,22.93
2019-03-08T13:55:01.359Z,23.87
2019-03-08T13:57:32.672Z,23.62
2019-03-08T14:00:06.429Z,24.27
2019-03-08T14:02:37.729Z,25.30
2019-03-08T14:05:09.275Z,24.87
2019-03-08T14:07:40.683Z,24.52
2019-03-08T14:10:22.877Z,26.93
2019-03-08T14:12:54.265Z,25.88
2019-03-08T14:15:25.734Z,24.98
2019-03-08T14:17:58.176Z,25.30
2019-03-08T14:20:29.583Z,24.72
2019-03-08T14:23:00.908Z,24.27
2019-03-08T14:25:33.692Z,24.50
2019-03-08T14:28:05.023Z,23.80
2019-03-08T14:30:45.159Z,25.35
2019-03-08T14:33:16.915Z,24.02
2019-03-08T14:35:49.694Z,24.18
2019-03-08T14:38:20.944Z,23.00
2019-03-08T14:40:57.422Z,22.52
2019-03-08T14:43:31.505Z,22.65
2019-03-08T14:46:13.152Z,23.87
2019-03-08T14:48:46.352Z,22.15
2019-03-08T14:51:17.662Z,21.37
2019-03-08T14:53:48.850Z,22.45
2019-03-08T14:56:21.558Z,21.50
2019-03-08T14:58:52.829Z,23.30
2019-03-08T15:01:24.079Z,23.90
2019-03-08T15:03:56.638Z,22.70
2019-03-08T15:06:30.246Z,23.00
2019-03-08T15:09:03.223Z,23.38
2019-03-08T15:11:37.687Z,23.18
2019-03-08T15:14:09.040Z,23.95
2019-03-08T15:16:40.355Z,23.15
2019-03-08T15:19:12.226Z,23.60
2019-03-08T15:21:48.381Z,24.63
2019-03-08T15:24:16.767Z,24.72
2019-03-08T15:26:48.017Z,24.23
2019-03-08T15:29:19.387Z,23.30
2019-03-08T15:31:50.659Z,24.55
2019-03-08T15:34:23.070Z,23.65
2019-03-08T15:36:54.336Z,23.85
2019-03-08T15:39:25.590Z,23.40
2019-03-08T15:41:58.601Z,23.57
2019-03-08T15:44:29.893Z,23.15
2019-03-08T15:47:01.067Z,23.50
2019-03-08T15:49:32.473Z,23.35
2019-03-08T15:52:07.604Z,24.47
2019-03-08T15:54:39.098Z,25.30
2019-03-08T15:57:10.373Z,24.57
2019-03-08T15:59:41.552Z,24.45
2019-03-08T16:02:12.817Z,24.72
2019-03-08T16:04:45.932Z,25.02
2019-03-08T16:07:19.105Z,24.95
2019-03-08T16:09:50.102Z,25.88
2019-03-08T16:12:21.329Z,25.70
2019-03-08T16:14:52.837Z,28.95
2019-03-08T16:17:24.052Z,26.23
2019-03-08T16:19:58.893Z,28.73
2019-03-08T16:22:29.804Z,27.87
2019-03-08T16:25:01.319Z,30.10
2019-03-08T16:27:32.771Z,28.40
2019-03-08T16:30:10.706Z,28.83
2019-03-08T16:32:43.574Z,30.52
2019-03-08T16:35:14.905Z,28.70
2019-03-08T16:37:47.855Z,28.52
2019-03-08T16:40:23.745Z,29.40
2019-03-08T16:43:03.743Z,27.77
2019-03-08T16:45:38.106Z,26.97
2019-03-08T16:48:13.794Z,25.32
2019-03-08T16:50:49.308Z,25.97
2019-03-08T16:53:22.088Z,25.15
2019-03-08T16:56:04.645Z,20.80
2019-03-08T16:58:49.789Z,22.10
2019-03-08T17:01:39.152Z,21.80
2019-03-08T17:04:20.985Z,19.85
2019-03-08T17:06:59.851Z,20.20
2019-03-08T17:09:45.564Z,18.37
2019-03-08T17:12:34.940Z,17.37
2019-03-08T17:15:08.825Z,18.62
2019-03-08T17:17:57.986Z,18.02
2019-03-08T17:20:39.655Z,17.15
2019-03-08T17:23:18.434Z,17.15
2019-03-08T17:25:51.251Z,16.15
2019-03-08T17:28:24.202Z,15.55
2019-03-08T17:31:03.026Z,14.45
2019-03-08T17:33:38.967Z,13.53
2019-03-08T17:36:27.833Z,13.48
2019-03-08T17:39:03.074Z,13.45
2019-03-08T17:41:46.803Z,13.90
2019-03-08T17:44:25.636Z,10.48
2019-03-08T17:47:14.994Z,10.30
2019-03-08T17:49:47.846Z,10.25
2019-03-08T17:52:26.551Z,10.98
2019-03-08T17:55:11.381Z,9.50
2019-03-08T17:57:47.202Z,10.78
2019-03-08T18:00:26.004Z,10.78
2019-03-08T18:02:59.172Z,11.93
2019-03-08T18:05:32.044Z,12.05
2019-03-08T18:08:13.464Z,13.05
2019-03-08T18:10:47.831Z,15.15
2019-03-08T18:13:20.680Z,17.77
2019-03-08T18:15:53.526Z,19.62
2019-03-08T18:18:49.229Z,21.25
2019-03-08T18:21:33.940Z,21.57
2019-03-08T18:24:07.056Z,22.75
2019-03-08T18:26:54.987Z,22.27
2019-03-08T18:29:36.873Z,19.27
2019-03-08T18:32:16.600Z,15.38
2019-03-08T18:34:59.238Z,16.37
2019-03-08T18:37:32.133Z,15.55
2019-03-08T18:40:24.472Z,17.35
2019-03-08T18:43:00.161Z,18.50
2019-03-08T18:45:36.616Z,18.75
2019-03-08T18:48:27.518Z,19.10
2019-03-08T18:51:01.624Z,20.02
2019-03-08T18:53:34.780Z,20.70
2019-03-08T18:56:07.562Z,21.57
2019-03-08T18:58:41.408Z,20.88
2019-03-08T19:01:30.533Z,22.17
2019-03-08T19:04:10.319Z,22.13
2019-03-08T19:06:57.769Z,23.57
2019-03-08T19:09:30.611Z,23.65
2019-03-08T19:12:20.452Z,24.10
2019-03-08T19:15:05.209Z,24.55
2019-03-08T19:17:49.740Z,23.38
2019-03-08T19:20:31.570Z,26.00
2019-03-08T19:23:04.456Z,26.85
2019-03-08T19:25:49.405Z,25.92
2019-03-08T19:28:38.796Z,27.45
2019-03-08T19:31:15.425Z,27.67
2019-03-08T19:33:48.273Z,28.90
2019-03-08T19:36:28.263Z,28.52
2019-03-08T19:39:01.033Z,28.05
2019-03-08T19:41:41.141Z,28.85
2019-03-08T19:44:21.826Z,27.52
2019-03-08T19:46:54.731Z,26.37
2019-03-08T19:49:43.662Z,25.05
2019-03-08T19:52:34.510Z,23.20
2019-03-08T19:55:10.883Z,23.60
2019-03-08T19:58:00.265Z,21.97
2019-03-08T20:00:33.105Z,22.45
2019-03-08T20:03:05.930Z,23.30
2019-03-08T20:05:41.435Z,22.93
2019-03-08T20:08:16.624Z,22.70
2019-03-08T20:11:01.774Z,22.52
2019-03-08T20:13:34.719Z,24.10
2019-03-08T20:16:19.535Z,24.05
2019-03-08T20:19:10.702Z,24.35
2019-03-08T20:24:17.141Z,26.30
2019-03-08T20:26:49.922Z,27.70
2019-03-08T20:29:26.637Z,27.17
2019-03-08T20:32:08.871Z,27.60
2019-03-08T20:34:57.913Z,26.57
2019-03-08T20:37:33.578Z,27.02
2019-03-08T20:40:13.810Z,26.55
2019-03-08T20:42:49.350Z,24.30
2019-03-08T20:45:37.708Z,24.85
2019-03-08T20:48:08.935Z,27.30
2019-03-08T20:50:40.170Z,24.55
2019-03-08T20:53:12.433Z,26.07
2019-03-08T20:55:44.088Z,25.15
2019-03-08T20:58:15.317Z,24.50
2019-03-08T21:00:46.524Z,26.02
2019-03-08T21:03:17.857Z,23.92
2019-03-08T21:05:50.757Z,22.50
2019-03-08T21:08:22.076Z,22.77
2019-03-08T21:10:53.343Z,21.77
2019-03-08T21:13:24.559Z,20.15
2019-03-08T21:15:55.963Z,21.37
2019-03-08T21:18:27.467Z,20.02
2019-03-08T21:20:58.733Z,19.75
2019-03-08T21:23:30.418Z,20.08
2019-03-08T21:26:01.684Z,20.52
2019-03-08T21:28:32.963Z,17.90
2019-03-08T21:31:04.323Z,18.17
2019-03-08T21:33:35.579Z,18.00
2019-03-08T21:36:06.874Z,17.37
2019-03-08T21:38:38.351Z,17.80
2019-03-08T21:41:12.039Z,16.95
2019-03-08T21:43:43.311Z,17.95
2019-03-08T21:46:14.551Z,18.70
2019-03-08T21:48:45.801Z,17.77
2019-03-08T21:51:19.192Z,17.70
2019-03-08T21:53:50.404Z,17.17
2019-03-08T21:56:21.826Z,17.57
2019-03-08T21:58:54.053Z,17.82
2019-03-08T22:01:25.301Z,18.20
2019-03-08T22:04:03.965Z,17.48
2019-03-08T22:06:36.026Z,18.25
2019-03-08T22:09:08.873Z,17.27
2019-03-08T22:11:43.743Z,17.70
2019-03-08T22:14:16.592Z,18.57
2019-03-08T22:16:48.823Z,18.67
2019-03-08T22:19:20.076Z,17.77
2019-03-08T22:21:51.392Z,18.73
2019-03-08T22:24:22.640Z,18.32
2019-03-08T22:26:54.017Z,17.92
2019-03-08T22:29:25.387Z,19.30
2019-03-08T22:31:56.646Z,18.98
2019-03-08T22:34:28.006Z,17.52
2019-03-08T22:36:59.316Z,17.15
2019-03-08T22:39:30.522Z,17.52
2019-03-08T22:42:01.832Z,17.65
2019-03-08T22:44:33.149Z,17.67
2019-03-08T22:47:04.462Z,17.55
2019-03-08T22:49:35.646Z,17.35
2019-03-08T22:52:06.915Z,17.60
2019-03-08T22:54:38.061Z,17.62
2019-03-08T22:57:09.373Z,16.97
2019-03-08T22:59:40.561Z,17.52
2019-03-08T23:02:11.771Z,18.30
2019-03-08T23:04:42.958Z,17.10
2019-03-08T23:07:14.025Z,17.40
2019-03-08T23:12:15.499Z,17.07
2019-03-08T23:14:47.678Z,16.35
2019-03-08T23:17:18.904Z,15.68
2019-03-08T23:19:50.350Z,16.85
2019-03-08T23:22:22.635Z,16.82
2019-03-08T23:24:53.766Z,17.62
2019-03-08T23:27:29.315Z,16.95
2019-03-08T23:30:01.132Z,16.32
2019-03-08T23:32:35.104Z,17.12
2019-03-08T23:35:07.431Z,16.80
2019-03-08T23:37:38.607Z,18.52
2019-03-08T23:40:09.882Z,17.05
2019-03-08T23:45:12.904Z,17.35
2019-03-08T23:47:44.147Z,16.23
2019-03-08T23:50:15.313Z,17.20
2019-03-08T23:52:48.159Z,16.45
2019-03-08T23:55:20.318Z,16.82
2019-03-08T23:57:51.513Z,16.85
